sensor_id;sensor_type;location;lat;lon;timestamp;pressure;altitude;pressure_sealevel;temperature;humidity
70758;BME280;59316;52.964;7.102;2023-03-18T00:02:25;100643.28;;;12.01;100.00
70758;BME280;59316;52.964;7.102;2023-03-18T00:07:46;100635.75;;;11.96;100.00
70758;BME280;59316;52.964;7.102;2023-03-18T00:13:08;100651.56;;;11.82;100.00
70758;BME280;59316;52.964;7.102;2023-03-18T00:18:30;100656.06;;;11.80;100.00
70758;BME280;59316;52.964;7.102;2023-03-18T00:23:51;100656.59;;;11.85;100.00
70758;BME280;59316;52.964;7.102;2023-03-18T00:29:13;100649.97;;;11.92;100.00
70758;BME280;59316;52.964;7.102;2023-03-18T00:34:34;100661.44;;;11.91;100.00
70758;BME280;59316;52.964;7.102;2023-03-18T00:40:01;100668.44;;;11.91;100.00
70758;BME280;59316;52.964;7.102;2023-03-18T00:45:24;100666.75;;;11.90;100.00
70758;BME280;59316;52.964;7.102;2023-03-18T00:50:46;100664.34;;;11.87;100.00
70758;BME280;59316;52.964;7.102;2023-03-18T00:56:08;100658.88;;;11.77;100.00
70758;BME280;59316;52.964;7.102;2023-03-18T01:01:29;100661.94;;;11.71;100.00
70758;BME280;59316;52.964;7.102;2023-03-18T01:06:51;100665.03;;;11.63;100.00
70758;BME280;59316;52.964;7.102;2023-03-18T01:12:13;100665.56;;;11.55;100.00
70758;BME280;59316;52.964;7.102;2023-03-18T01:17:34;100663.03;;;11.41;100.00
70758;BME280;59316;52.964;7.102;2023-03-18T01:22:56;100668.09;;;11.16;100.00
70758;BME280;59316;52.964;7.102;2023-03-18T01:28:20;100669.94;;;11.01;100.00
70758;BME280;59316;52.964;7.102;2023-03-18T01:33:42;100662.22;;;10.85;100.00
70758;BME280;59316;52.964;7.102;2023-03-18T01:39:06;100674.88;;;10.64;100.00
70758;BME280;59316;52.964;7.102;2023-03-18T01:44:28;100673.09;;;10.36;100.00
70758;BME280;59316;52.964;7.102;2023-03-18T01:49:51;100689.00;;;10.18;100.00
70758;BME280;59316;52.964;7.102;2023-03-18T01:55:16;100683.81;;;9.88;100.00
70758;BME280;59316;52.964;7.102;2023-03-18T02:00:43;100686.38;;;9.74;100.00
70758;BME280;59316;52.964;7.102;2023-03-18T02:06:11;100678.44;;;9.61;100.00
70758;BME280;59316;52.964;7.102;2023-03-18T02:11:38;100683.59;;;9.62;100.00
70758;BME280;59316;52.964;7.102;2023-03-18T02:17:13;100690.28;;;10.11;100.00
70758;BME280;59316;52.964;7.102;2023-03-18T02:22:40;100689.72;;;10.20;100.00
70758;BME280;59316;52.964;7.102;2023-03-18T02:28:09;100681.06;;;10.49;100.00
70758;BME280;59316;52.964;7.102;2023-03-18T02:33:35;100696.63;;;10.79;100.00
70758;BME280;59316;52.964;7.102;2023-03-18T02:38:58;100700.44;;;10.88;100.00
70758;BME280;59316;52.964;7.102;2023-03-18T02:44:20;100701.88;;;10.65;100.00
70758;BME280;59316;52.964;7.102;2023-03-18T02:50:04;100696.75;;;10.49;100.00
70758;BME280;59316;52.964;7.102;2023-03-18T02:55:26;100703.38;;;10.40;100.00
70758;BME280;59316;52.964;7.102;2023-03-18T03:00:48;100703.66;;;10.50;100.00
70758;BME280;59316;52.964;7.102;2023-03-18T03:06:09;100719.78;;;10.42;100.00
70758;BME280;59316;52.964;7.102;2023-03-18T03:11:31;100722.09;;;10.32;100.00
70758;BME280;59316;52.964;7.102;2023-03-18T03:17:02;100726.41;;;10.04;100.00
70758;BME280;59316;52.964;7.102;2023-03-18T03:22:23;100729.06;;;9.88;100.00
70758;BME280;59316;52.964;7.102;2023-03-18T03:27:45;100741.56;;;9.98;100.00
70758;BME280;59316;52.964;7.102;2023-03-18T03:33:07;100740.19;;;10.07;100.00
70758;BME280;59316;52.964;7.102;2023-03-18T03:38:28;100741.44;;;10.30;100.00
70758;BME280;59316;52.964;7.102;2023-03-18T03:43:50;100742.72;;;10.53;100.00
70758;BME280;59316;52.964;7.102;2023-03-18T03:49:11;100749.69;;;10.67;100.00
70758;BME280;59316;52.964;7.102;2023-03-18T03:54:33;100755.31;;;10.61;100.00
70758;BME280;59316;52.964;7.102;2023-03-18T03:59:55;100755.16;;;10.33;100.00
70758;BME280;59316;52.964;7.102;2023-03-18T04:05:38;100756.50;;;9.96;100.00
70758;BME280;59316;52.964;7.102;2023-03-18T04:10:59;100776.53;;;9.81;100.00
70758;BME280;59316;52.964;7.102;2023-03-18T04:16:21;100781.78;;;9.65;100.00
70758;BME280;59316;52.964;7.102;2023-03-18T04:21:43;100776.63;;;9.63;100.00
70758;BME280;59316;52.964;7.102;2023-03-18T04:27:04;100780.19;;;9.62;100.00
70758;BME280;59316;52.964;7.102;2023-03-18T04:32:26;100783.16;;;9.56;100.00
70758;BME280;59316;52.964;7.102;2023-03-18T04:37:48;100788.63;;;9.51;100.00
70758;BME280;59316;52.964;7.102;2023-03-18T04:43:10;100798.81;;;9.56;100.00
70758;BME280;59316;52.964;7.102;2023-03-18T04:48:31;100797.31;;;9.52;100.00
70758;BME280;59316;52.964;7.102;2023-03-18T04:53:56;100796.78;;;9.45;100.00
70758;BME280;59316;52.964;7.102;2023-03-18T04:59:22;100806.81;;;9.37;100.00
70758;BME280;59316;52.964;7.102;2023-03-18T05:04:45;100800.59;;;9.40;100.00
70758;BME280;59316;52.964;7.102;2023-03-18T05:10:07;100808.50;;;9.38;100.00
70758;BME280;59316;52.964;7.102;2023-03-18T05:15:30;100818.00;;;9.55;100.00
70758;BME280;59316;52.964;7.102;2023-03-18T05:20:53;100820.44;;;9.58;100.00
70758;BME280;59316;52.964;7.102;2023-03-18T05:26:14;100821.53;;;9.54;100.00
70758;BME280;59316;52.964;7.102;2023-03-18T05:31:38;100826.19;;;9.49;100.00
70758;BME280;59316;52.964;7.102;2023-03-18T05:37:00;100815.34;;;9.41;100.00
70758;BME280;59316;52.964;7.102;2023-03-18T05:42:22;100820.28;;;9.45;100.00
70758;BME280;59316;52.964;7.102;2023-03-18T05:47:44;100817.19;;;9.85;100.00
70758;BME280;59316;52.964;7.102;2023-03-18T05:53:07;100825.34;;;10.11;100.00
70758;BME280;59316;52.964;7.102;2023-03-18T05:58:35;100834.66;;;10.45;100.00
70758;BME280;59316;52.964;7.102;2023-03-18T06:04:13;100839.72;;;10.63;100.00
70758;BME280;59316;52.964;7.102;2023-03-18T06:09:34;100846.66;;;10.78;100.00
70758;BME280;59316;52.964;7.102;2023-03-18T06:14:56;100845.44;;;10.84;100.00
70758;BME280;59316;52.964;7.102;2023-03-18T06:20:18;100856.75;;;10.84;100.00
70758;BME280;59316;52.964;7.102;2023-03-18T06:25:40;100860.28;;;10.83;100.00
70758;BME280;59316;52.964;7.102;2023-03-18T06:31:02;100863.19;;;10.79;100.00
70758;BME280;59316;52.964;7.102;2023-03-18T06:36:25;100871.31;;;10.60;100.00
70758;BME280;59316;52.964;7.102;2023-03-18T06:41:47;100867.81;;;10.59;100.00
70758;BME280;59316;52.964;7.102;2023-03-18T06:47:20;100877.66;;;10.70;100.00
70758;BME280;59316;52.964;7.102;2023-03-18T06:52:48;100884.41;;;10.89;100.00
70758;BME280;59316;52.964;7.102;2023-03-18T06:58:16;100878.25;;;11.04;100.00
70758;BME280;59316;52.964;7.102;2023-03-18T07:03:51;100892.25;;;11.32;100.00
70758;BME280;59316;52.964;7.102;2023-03-18T07:09:12;100900.34;;;11.56;100.00
70758;BME280;59316;52.964;7.102;2023-03-18T07:14:34;100900.78;;;11.63;100.00
70758;BME280;59316;52.964;7.102;2023-03-18T07:19:56;100917.88;;;11.83;100.00
70758;BME280;59316;52.964;7.102;2023-03-18T07:25:18;100923.31;;;12.07;100.00
70758;BME280;59316;52.964;7.102;2023-03-18T07:30:43;100919.69;;;12.23;100.00
70758;BME280;59316;52.964;7.102;2023-03-18T07:36:04;100931.44;;;12.44;100.00
70758;BME280;59316;52.964;7.102;2023-03-18T07:41:26;100937.03;;;12.65;100.00
70758;BME280;59316;52.964;7.102;2023-03-18T07:46:48;100943.88;;;12.94;100.00
70758;BME280;59316;52.964;7.102;2023-03-18T07:52:09;100946.81;;;13.15;100.00
70758;BME280;59316;52.964;7.102;2023-03-18T07:57:31;100959.00;;;13.16;100.00
70758;BME280;59316;52.964;7.102;2023-03-18T08:02:52;100968.97;;;13.24;100.00
70758;BME280;59316;52.964;7.102;2023-03-18T08:08:14;100976.31;;;13.31;100.00
70758;BME280;59316;52.964;7.102;2023-03-18T08:13:36;100980.22;;;13.39;100.00
70758;BME280;59316;52.964;7.102;2023-03-18T08:18:58;100981.59;;;13.31;100.00
70758;BME280;59316;52.964;7.102;2023-03-18T08:24:20;100966.56;;;13.46;100.00
70758;BME280;59316;52.964;7.102;2023-03-18T08:29:42;100952.53;;;13.72;100.00
70758;BME280;59316;52.964;7.102;2023-03-18T08:35:04;100959.63;;;13.83;100.00
70758;BME280;59316;52.964;7.102;2023-03-18T08:40:26;100964.25;;;13.79;100.00
70758;BME280;59316;52.964;7.102;2023-03-18T08:45:53;100972.00;;;13.56;100.00
70758;BME280;59316;52.964;7.102;2023-03-18T08:51:16;100974.97;;;13.13;100.00
70758;BME280;59316;52.964;7.102;2023-03-18T08:56:37;100979.06;;;13.17;100.00
70758;BME280;59316;52.964;7.102;2023-03-18T09:01:59;100987.06;;;13.15;100.00
70758;BME280;59316;52.964;7.102;2023-03-18T09:07:20;100979.94;;;13.30;100.00
70758;BME280;59316;52.964;7.102;2023-03-18T09:12:43;100983.03;;;13.61;100.00
70758;BME280;59316;52.964;7.102;2023-03-18T09:18:05;100975.47;;;14.07;100.00
70758;BME280;59316;52.964;7.102;2023-03-18T09:23:32;100965.13;;;14.76;100.00
70758;BME280;59316;52.964;7.102;2023-03-18T09:28:54;100972.47;;;15.18;100.00
70758;BME280;59316;52.964;7.102;2023-03-18T09:34:16;100980.41;;;15.30;100.00
70758;BME280;59316;52.964;7.102;2023-03-18T09:39:37;100980.25;;;15.31;100.00
70758;BME280;59316;52.964;7.102;2023-03-18T09:45:02;100997.81;;;15.43;100.00
70758;BME280;59316;52.964;7.102;2023-03-18T09:50:39;101003.44;;;15.39;100.00
70758;BME280;59316;52.964;7.102;2023-03-18T09:56:15;100992.97;;;15.15;100.00
70758;BME280;59316;52.964;7.102;2023-03-18T10:01:42;101005.97;;;15.40;100.00
70758;BME280;59316;52.964;7.102;2023-03-18T10:07:15;101006.44;;;15.57;100.00
70758;BME280;59316;52.964;7.102;2023-03-18T10:12:42;101011.59;;;16.25;100.00
70758;BME280;59316;52.964;7.102;2023-03-18T10:18:11;101003.66;;;16.69;100.00
70758;BME280;59316;52.964;7.102;2023-03-18T10:30:18;101010.47;;;19.04;100.00
70758;BME280;59316;52.964;7.102;2023-03-18T10:36:07;101015.00;;;18.55;100.00
70758;BME280;59316;52.964;7.102;2023-03-18T10:41:53;101025.91;;;17.61;100.00
70758;BME280;59316;52.964;7.102;2023-03-18T10:47:26;101030.09;;;16.90;100.00
70758;BME280;59316;52.964;7.102;2023-03-18T10:58:23;101029.06;;;18.36;100.00
70758;BME280;59316;52.964;7.102;2023-03-18T11:04:00;101031.06;;;17.31;100.00
70758;BME280;59316;52.964;7.102;2023-03-18T11:09:33;101031.38;;;16.96;100.00
70758;BME280;59316;52.964;7.102;2023-03-18T11:14:56;101026.28;;;17.25;100.00
70758;BME280;59316;52.964;7.102;2023-03-18T11:20:21;101038.06;;;17.73;100.00
70758;BME280;59316;52.964;7.102;2023-03-18T11:25:45;101034.78;;;19.47;100.00
70758;BME280;59316;52.964;7.102;2023-03-18T11:31:16;101030.09;;;19.69;100.00
70758;BME280;59316;52.964;7.102;2023-03-18T11:36:38;101022.88;;;20.89;100.00
70758;BME280;59316;52.964;7.102;2023-03-18T11:41:59;101025.75;;;21.83;100.00
70758;BME280;59316;52.964;7.102;2023-03-18T11:47:23;101015.50;;;21.62;100.00
70758;BME280;59316;52.964;7.102;2023-03-18T12:04:33;101004.63;;;21.21;100.00
70758;BME280;59316;52.964;7.102;2023-03-18T12:10:24;101015.44;;;20.75;100.00
70758;BME280;59316;52.964;7.102;2023-03-18T12:27:37;101000.72;;;21.33;100.00
70758;BME280;59316;52.964;7.102;2023-03-18T12:34:08;100998.56;;;21.63;98.42
70758;BME280;59316;52.964;7.102;2023-03-18T12:45:36;100997.63;;;21.11;99.39
70758;BME280;59316;52.964;7.102;2023-03-18T12:51:09;101005.91;;;20.46;100.00
70758;BME280;59316;52.964;7.102;2023-03-18T12:56:40;101004.53;;;18.83;100.00
70758;BME280;59316;52.964;7.102;2023-03-18T13:02:20;101003.50;;;18.84;100.00
70758;BME280;59316;52.964;7.102;2023-03-18T13:13:43;101003.38;;;19.52;100.00
70758;BME280;59316;52.964;7.102;2023-03-18T13:19:09;101004.81;;;20.02;100.00
70758;BME280;59316;52.964;7.102;2023-03-18T13:24:58;101007.63;;;20.55;100.00
70758;BME280;59316;52.964;7.102;2023-03-18T13:36:56;100998.75;;;20.28;100.00
70758;BME280;59316;52.964;7.102;2023-03-18T13:42:38;100985.91;;;21.65;98.13
70758;BME280;59316;52.964;7.102;2023-03-18T13:48:13;101002.09;;;21.11;100.00
70758;BME280;59316;52.964;7.102;2023-03-18T13:53:58;100990.13;;;21.07;100.00
70758;BME280;59316;52.964;7.102;2023-03-18T14:04:52;100988.28;;;21.76;100.00
70758;BME280;59316;52.964;7.102;2023-03-18T14:10:18;100984.50;;;21.18;100.00
70758;BME280;59316;52.964;7.102;2023-03-18T14:15:42;100992.28;;;19.95;100.00
70758;BME280;59316;52.964;7.102;2023-03-18T14:21:05;100988.06;;;19.36;100.00
70758;BME280;59316;52.964;7.102;2023-03-18T14:38:00;100982.28;;;19.13;100.00
70758;BME280;59316;52.964;7.102;2023-03-18T14:43:36;100974.22;;;19.15;100.00
70758;BME280;59316;52.964;7.102;2023-03-18T14:54:53;100967.88;;;20.09;100.00
70758;BME280;59316;52.964;7.102;2023-03-18T15:00:20;100957.56;;;20.06;100.00
70758;BME280;59316;52.964;7.102;2023-03-18T15:05:42;100965.84;;;19.47;100.00
70758;BME280;59316;52.964;7.102;2023-03-18T15:11:05;100960.44;;;19.01;100.00
70758;BME280;59316;52.964;7.102;2023-03-18T15:16:28;100951.44;;;18.45;100.00
70758;BME280;59316;52.964;7.102;2023-03-18T15:21:50;100959.50;;;18.14;100.00
70758;BME280;59316;52.964;7.102;2023-03-18T15:27:14;100959.91;;;18.00;100.00
70758;BME280;59316;52.964;7.102;2023-03-18T15:32:45;100954.75;;;17.88;100.00
70758;BME280;59316;52.964;7.102;2023-03-18T15:43:32;100945.19;;;17.66;100.00
70758;BME280;59316;52.964;7.102;2023-03-18T15:49:02;100945.13;;;17.47;100.00
70758;BME280;59316;52.964;7.102;2023-03-18T15:54:26;100958.16;;;17.29;100.00
70758;BME280;59316;52.964;7.102;2023-03-18T15:59:49;100959.41;;;17.03;100.00
70758;BME280;59316;52.964;7.102;2023-03-18T16:05:19;100964.97;;;16.79;100.00
70758;BME280;59316;52.964;7.102;2023-03-18T16:10:50;100959.06;;;16.66;100.00
70758;BME280;59316;52.964;7.102;2023-03-18T16:16:23;100967.16;;;16.41;100.00
70758;BME280;59316;52.964;7.102;2023-03-18T16:21:47;100963.38;;;16.23;100.00
70758;BME280;59316;52.964;7.102;2023-03-18T16:27:42;100976.41;;;16.03;100.00
70758;BME280;59316;52.964;7.102;2023-03-18T16:33:04;100973.00;;;15.69;100.00
70758;BME280;59316;52.964;7.102;2023-03-18T16:38:38;100982.59;;;15.47;100.00
70758;BME280;59316;52.964;7.102;2023-03-18T16:43:59;100977.91;;;15.39;100.00
70758;BME280;59316;52.964;7.102;2023-03-18T16:49:30;100990.94;;;15.07;100.00
70758;BME280;59316;52.964;7.102;2023-03-18T16:54:53;101000.94;;;14.90;100.00
70758;BME280;59316;52.964;7.102;2023-03-18T17:05:49;101026.19;;;14.93;100.00
70758;BME280;59316;52.964;7.102;2023-03-18T17:11:14;101029.66;;;14.58;100.00
70758;BME280;59316;52.964;7.102;2023-03-18T17:16:37;101038.22;;;14.24;100.00
70758;BME280;59316;52.964;7.102;2023-03-18T17:21:58;101035.78;;;13.84;100.00
70758;BME280;59316;52.964;7.102;2023-03-18T17:27:26;101045.06;;;13.64;100.00
70758;BME280;59316;52.964;7.102;2023-03-18T17:32:50;101034.75;;;13.35;100.00
70758;BME280;59316;52.964;7.102;2023-03-18T17:38:11;101026.56;;;13.14;100.00
70758;BME280;59316;52.964;7.102;2023-03-18T17:43:35;101026.19;;;12.93;100.00
70758;BME280;59316;52.964;7.102;2023-03-18T17:48:57;101030.28;;;12.84;100.00
70758;BME280;59316;52.964;7.102;2023-03-18T17:54:21;101050.00;;;12.77;100.00
70758;BME280;59316;52.964;7.102;2023-03-18T17:59:44;101047.69;;;12.72;100.00
70758;BME280;59316;52.964;7.102;2023-03-18T18:05:15;101047.78;;;12.71;100.00
70758;BME280;59316;52.964;7.102;2023-03-18T18:10:38;101044.72;;;12.64;100.00
70758;BME280;59316;52.964;7.102;2023-03-18T18:16:00;101044.47;;;12.54;100.00
70758;BME280;59316;52.964;7.102;2023-03-18T18:21:22;101044.25;;;12.57;100.00
70758;BME280;59316;52.964;7.102;2023-03-18T18:26:45;101057.25;;;12.73;100.00
70758;BME280;59316;52.964;7.102;2023-03-18T18:32:06;101050.50;;;12.69;100.00
70758;BME280;59316;52.964;7.102;2023-03-18T18:37:27;101054.28;;;12.78;100.00
70758;BME280;59316;52.964;7.102;2023-03-18T18:42:49;101060.41;;;12.78;100.00
70758;BME280;59316;52.964;7.102;2023-03-18T18:48:16;101053.31;;;12.66;100.00
70758;BME280;59316;52.964;7.102;2023-03-18T18:53:38;101052.69;;;12.62;100.00
70758;BME280;59316;52.964;7.102;2023-03-18T19:04:55;101056.03;;;12.23;100.00
70758;BME280;59316;52.964;7.102;2023-03-18T19:10:17;101056.75;;;11.83;100.00
70758;BME280;59316;52.964;7.102;2023-03-18T19:15:38;101053.66;;;11.47;100.00
70758;BME280;59316;52.964;7.102;2023-03-18T19:21:00;101062.09;;;11.08;100.00
70758;BME280;59316;52.964;7.102;2023-03-18T19:26:21;101054.41;;;10.90;100.00
70758;BME280;59316;52.964;7.102;2023-03-18T19:31:43;101055.28;;;10.75;100.00
70758;BME280;59316;52.964;7.102;2023-03-18T19:37:04;101060.19;;;10.65;100.00
70758;BME280;59316;52.964;7.102;2023-03-18T19:42:27;101059.56;;;10.44;100.00
70758;BME280;59316;52.964;7.102;2023-03-18T19:47:48;101053.59;;;10.42;100.00
70758;BME280;59316;52.964;7.102;2023-03-18T19:53:11;101061.69;;;10.21;100.00
70758;BME280;59316;52.964;7.102;2023-03-18T19:58:34;101065.63;;;9.96;100.00
70758;BME280;59316;52.964;7.102;2023-03-18T20:03:56;101059.13;;;9.87;100.00
70758;BME280;59316;52.964;7.102;2023-03-18T20:09:18;101060.41;;;9.96;100.00
70758;BME280;59316;52.964;7.102;2023-03-18T20:14:40;101072.34;;;9.84;100.00
70758;BME280;59316;52.964;7.102;2023-03-18T20:20:02;101057.97;;;9.93;100.00
70758;BME280;59316;52.964;7.102;2023-03-18T20:25:38;101054.78;;;10.20;100.00
70758;BME280;59316;52.964;7.102;2023-03-18T20:31:00;101055.63;;;10.20;100.00
70758;BME280;59316;52.964;7.102;2023-03-18T20:36:22;101058.56;;;10.14;100.00
70758;BME280;59316;52.964;7.102;2023-03-18T20:41:43;101061.63;;;10.23;100.00
70758;BME280;59316;52.964;7.102;2023-03-18T20:47:05;101063.38;;;10.38;100.00
70758;BME280;59316;52.964;7.102;2023-03-18T20:52:28;101077.44;;;10.19;100.00
70758;BME280;59316;52.964;7.102;2023-03-18T20:57:50;101075.50;;;10.23;100.00
70758;BME280;59316;52.964;7.102;2023-03-18T21:03:28;101083.69;;;10.33;100.00
70758;BME280;59316;52.964;7.102;2023-03-18T21:08:51;101091.56;;;10.33;100.00
70758;BME280;59316;52.964;7.102;2023-03-18T21:14:13;101089.34;;;10.41;100.00
70758;BME280;59316;52.964;7.102;2023-03-18T21:19:35;101081.34;;;10.12;100.00
70758;BME280;59316;52.964;7.102;2023-03-18T21:24:57;101082.88;;;10.64;100.00
70758;BME280;59316;52.964;7.102;2023-03-18T21:30:20;101086.91;;;10.54;100.00
70758;BME280;59316;52.964;7.102;2023-03-18T21:35:42;101077.72;;;10.63;100.00
70758;BME280;59316;52.964;7.102;2023-03-18T21:41:15;101079.75;;;10.74;100.00
70758;BME280;59316;52.964;7.102;2023-03-18T21:46:38;101081.03;;;10.50;100.00
70758;BME280;59316;52.964;7.102;2023-03-18T21:52:00;101075.78;;;10.34;100.00
70758;BME280;59316;52.964;7.102;2023-03-18T21:57:22;101066.09;;;10.36;100.00
70758;BME280;59316;52.964;7.102;2023-03-18T22:02:45;101065.66;;;10.44;100.00
70758;BME280;59316;52.964;7.102;2023-03-18T22:08:07;101056.13;;;10.43;100.00
70758;BME280;59316;52.964;7.102;2023-03-18T22:13:29;101059.84;;;10.55;100.00
70758;BME280;59316;52.964;7.102;2023-03-18T22:18:50;101052.25;;;10.66;100.00
70758;BME280;59316;52.964;7.102;2023-03-18T22:24:13;101052.66;;;10.75;100.00
70758;BME280;59316;52.964;7.102;2023-03-18T22:29:34;101046.66;;;10.73;100.00
70758;BME280;59316;52.964;7.102;2023-03-18T22:34:55;101039.72;;;10.88;100.00
70758;BME280;59316;52.964;7.102;2023-03-18T22:40:22;101038.94;;;11.16;100.00
70758;BME280;59316;52.964;7.102;2023-03-18T22:45:50;101033.13;;;11.11;100.00
70758;BME280;59316;52.964;7.102;2023-03-18T22:51:21;101037.91;;;11.18;100.00
70758;BME280;59316;52.964;7.102;2023-03-18T22:56:44;101047.28;;;11.23;100.00
70758;BME280;59316;52.964;7.102;2023-03-18T23:02:12;101066.06;;;11.29;100.00
70758;BME280;59316;52.964;7.102;2023-03-18T23:07:35;101082.31;;;10.90;100.00
70758;BME280;59316;52.964;7.102;2023-03-18T23:12:56;101074.59;;;11.02;100.00
70758;BME280;59316;52.964;7.102;2023-03-18T23:18:18;101068.34;;;11.05;100.00
70758;BME280;59316;52.964;7.102;2023-03-18T23:23:40;101053.63;;;11.18;100.00
70758;BME280;59316;52.964;7.102;2023-03-18T23:29:01;101041.69;;;11.43;100.00
70758;BME280;59316;52.964;7.102;2023-03-18T23:34:23;101052.69;;;11.20;100.00
70758;BME280;59316;52.964;7.102;2023-03-18T23:39:44;101053.06;;;11.13;100.00
70758;BME280;59316;52.964;7.102;2023-03-18T23:45:06;101051.59;;;11.24;100.00
70758;BME280;59316;52.964;7.102;2023-03-18T23:50:28;101047.75;;;10.99;100.00
70758;BME280;59316;52.964;7.102;2023-03-18T23:55:49;101048.97;;;10.93;100.00
